Time;durP1;ratioP1;P1;durP2;ratioP2;P2;SDS_P1;SDS_P2;PMS_P1;PMS_P2;Temp;Humidity;BMP_temperature;BMP_pressure;BME280_temperature;BME280_humidity;BME280_pressure;Samples;Min_cycle;Max_cycle;Signal;HPM_P1;HPM_P2
2021/09/09 00:00:08;;;;;;;1.98;1.55;;;19.40;71.70;;;;;;5114597;28;20062;-77
2021/09/09 00:02:33;;;;;;;2.15;1.55;;;19.30;71.60;;;;;;5096264;28;20461;-76
2021/09/09 00:04:59;;;;;;;3.47;2.40;;;19.30;71.70;;;;;;5114637;28;20106;-76
2021/09/09 00:07:24;;;;;;;1.52;1.42;;;19.30;71.80;;;;;;5114321;28;20147;-76
2021/09/09 00:09:50;;;;;;;1.85;1.33;;;19.30;71.80;;;;;;5096123;28;20012;-77
2021/09/09 00:12:15;;;;;;;2.38;1.58;;;19.20;71.80;;;;;;5095662;28;20465;-76
2021/09/09 00:14:41;;;;;;;1.83;1.40;;;19.20;71.80;;;;;;5096074;28;20070;-78
2021/09/09 00:17:07;;;;;;;1.77;1.17;;;19.20;71.90;;;;;;5114264;28;20115;-77
2021/09/09 00:19:33;;;;;;;2.70;1.50;;;19.20;71.90;;;;;;5114316;28;20031;-77
2021/09/09 00:21:58;;;;;;;1.92;1.50;;;19.20;71.90;;;;;;5114122;28;20034;-77
2021/09/09 00:24:24;;;;;;;2.33;1.42;;;19.20;71.90;;;;;;5114062;28;20020;-77
2021/09/09 00:26:49;;;;;;;1.40;1.30;;;19.10;71.90;;;;;;5113654;28;20073;-77
2021/09/09 00:29:15;;;;;;;2.38;1.35;;;19.10;71.90;;;;;;5095843;28;20019;-78
2021/09/09 00:31:41;;;;;;;1.40;1.20;;;19.10;72.00;;;;;;5114093;28;20032;-78
2021/09/09 00:34:06;;;;;;;1.50;1.27;;;19.10;72.00;;;;;;5113879;28;20054;-78
2021/09/09 00:36:32;;;;;;;1.42;1.33;;;19.10;72.00;;;;;;5113854;28;20487;-77
2021/09/09 00:38:57;;;;;;;2.03;1.38;;;19.00;72.10;;;;;;5113957;28;20099;-77
2021/09/09 00:41:23;;;;;;;2.13;1.45;;;19.00;72.20;;;;;;5113450;28;20092;-77
2021/09/09 00:43:48;;;;;;;1.38;1.15;;;19.00;72.30;;;;;;5113843;28;20035;-77
2021/09/09 00:46:21;;;;;;;1.60;1.30;;;18.90;72.20;;;;;;5113840;28;20030;-77
2021/09/09 00:48:47;;;;;;;1.30;1.15;;;18.90;72.20;;;;;;5113796;28;20099;-78
2021/09/09 00:51:12;;;;;;;1.38;1.27;;;18.90;72.40;;;;;;5113764;28;20114;-78
2021/09/09 00:53:42;;;;;;;1.30;1.20;;;18.80;72.30;;;;;;5113004;28;20024;-77
2021/09/09 00:56:08;;;;;;;1.88;1.20;;;18.80;72.40;;;;;;5113133;28;20428;-78
2021/09/09 00:58:36;;;;;;;1.27;1.17;;;18.80;72.40;;;;;;5113671;28;20031;-78
2021/09/09 01:01:01;;;;;;;1.63;1.20;;;18.80;72.40;;;;;;5095345;28;20464;-78
2021/09/09 01:03:27;;;;;;;1.60;1.17;;;18.80;72.40;;;;;;5113676;28;20076;-78
2021/09/09 01:05:52;;;;;;;1.38;1.08;;;18.80;72.40;;;;;;5113563;28;20016;-78
2021/09/09 01:08:18;;;;;;;1.38;1.25;;;18.80;72.40;;;;;;5129419;28;20032;-78
2021/09/09 01:10:44;;;;;;;1.00;1.00;;;18.80;72.40;;;;;;5113066;28;20019;-78
2021/09/09 01:13:10;;;;;;;1.52;1.10;;;18.80;72.50;;;;;;5095354;28;20063;-78
2021/09/09 01:15:42;;;;;;;2.53;1.50;;;18.70;72.40;;;;;;5113432;28;20030;-78
2021/09/09 01:18:13;;;;;;;1.58;1.15;;;18.80;72.50;;;;;;5113438;28;20027;-79
2021/09/09 01:20:39;;;;;;;1.67;1.30;;;18.70;72.50;;;;;;5113437;28;20082;-76
2021/09/09 01:23:06;;;;;;;1.80;1.50;;;18.70;72.50;;;;;;5113469;28;20023;-76
2021/09/09 01:25:32;;;;;;;1.67;1.48;;;18.70;72.60;;;;;;5113069;28;20020;-76
2021/09/09 01:27:58;;;;;;;1.58;1.35;;;18.70;72.60;;;;;;5113418;28;20055;-76
2021/09/09 01:30:24;;;;;;;2.00;1.48;;;18.70;72.50;;;;;;5113410;28;20050;-78
2021/09/09 01:32:50;;;;;;;2.00;1.52;;;18.70;72.60;;;;;;5113168;28;20094;-76
2021/09/09 01:35:15;;;;;;;2.80;1.63;;;18.70;72.60;;;;;;5095177;28;20023;-78
2021/09/09 01:37:41;;;;;;;2.60;1.70;;;18.70;72.60;;;;;;5113247;28;20114;-77
2021/09/09 01:40:07;;;;;;;1.30;1.20;;;18.70;72.60;;;;;;5112948;28;20123;-77
2021/09/09 01:42:33;;;;;;;1.65;1.45;;;18.60;72.70;;;;;;5094992;28;20039;-77
2021/09/09 01:44:59;;;;;;;2.10;1.70;;;18.60;72.80;;;;;;5113150;28;20098;-77
2021/09/09 01:47:24;;;;;;;1.27;1.17;;;18.60;72.90;;;;;;5113301;28;20024;-78
2021/09/09 01:49:51;;;;;;;2.60;1.60;;;18.50;72.80;;;;;;5113275;28;20019;-78
2021/09/09 01:52:16;;;;;;;2.72;1.50;;;18.50;72.80;;;;;;5113202;28;20020;-78
2021/09/09 01:54:42;;;;;;;1.95;1.38;;;18.60;72.90;;;;;;5112766;28;20026;-78
2021/09/09 01:57:07;;;;;;;2.00;1.70;;;18.50;72.80;;;;;;5112962;28;20109;-78
2021/09/09 01:59:33;;;;;;;2.53;1.50;;;18.50;72.90;;;;;;5113193;28;20015;-78
2021/09/09 02:01:58;;;;;;;1.80;1.30;;;18.50;72.90;;;;;;5113057;28;20028;-78
2021/09/09 02:04:27;;;;;;;1.63;1.50;;;18.50;72.90;;;;;;5113238;28;20095;-78
2021/09/09 02:06:53;;;;;;;1.60;1.10;;;18.50;73.00;;;;;;5097537;28;20016;-77
2021/09/09 02:09:19;;;;;;;1.83;1.45;;;18.50;73.20;;;;;;5116865;28;20023;-78
2021/09/09 02:11:44;;;;;;;1.50;1.40;;;18.40;73.20;;;;;;5116700;28;20024;-78
2021/09/09 02:14:10;;;;;;;2.58;1.73;;;18.40;73.20;;;;;;5116633;28;20066;-77
2021/09/09 02:16:35;;;;;;;1.90;1.38;;;18.30;73.20;;;;;;5116810;28;20476;-78
2021/09/09 02:19:01;;;;;;;2.33;1.20;;;18.40;73.20;;;;;;5116692;28;20035;-78
2021/09/09 02:21:26;;;;;;;1.38;1.23;;;18.30;73.20;;;;;;5115918;28;20019;-77
2021/09/09 02:23:52;;;;;;;1.33;1.13;;;18.30;73.20;;;;;;5098255;28;20054;-78
2021/09/09 02:26:18;;;;;;;1.70;1.35;;;18.30;73.30;;;;;;5098138;28;20024;-78
2021/09/09 02:28:43;;;;;;;1.88;1.33;;;18.30;73.30;;;;;;5116424;28;20034;-78
2021/09/09 02:31:09;;;;;;;1.70;1.23;;;18.30;73.40;;;;;;5116233;28;20080;-78
2021/09/09 02:33:34;;;;;;;2.13;1.42;;;18.30;73.40;;;;;;5097835;28;20449;-78
2021/09/09 02:36:00;;;;;;;2.03;1.80;;;18.20;73.40;;;;;;5115579;28;20118;-78
2021/09/09 02:38:25;;;;;;;1.38;1.13;;;18.20;73.40;;;;;;5116138;28;20038;-78
2021/09/09 02:40:51;;;;;;;2.05;1.50;;;18.20;73.50;;;;;;5116179;28;20016;-78
2021/09/09 02:43:16;;;;;;;2.08;1.63;;;18.20;73.50;;;;;;5116087;28;20032;-78
2021/09/09 02:45:42;;;;;;;1.60;1.27;;;18.10;73.60;;;;;;5116064;28;20027;-78
2021/09/09 02:48:08;;;;;;;2.70;1.80;;;18.10;73.60;;;;;;5115968;28;20502;-78
2021/09/09 02:50:33;;;;;;;1.42;1.33;;;18.10;74.00;;;;;;5115733;28;20507;-78
2021/09/09 02:52:59;;;;;;;1.27;1.17;;;18.10;73.60;;;;;;5115995;28;20392;-78
2021/09/09 02:55:25;;;;;;;1.65;1.42;;;18.10;73.70;;;;;;5115964;28;20055;-78
2021/09/09 02:57:50;;;;;;;2.35;1.50;;;18.10;73.70;;;;;;5115701;28;20480;-78
2021/09/09 03:00:16;;;;;;;2.10;1.50;;;18.00;73.60;;;;;;5115654;28;20027;-77
2021/09/09 03:02:42;;;;;;;1.83;1.40;;;18.00;73.70;;;;;;5115909;28;20421;-77
2021/09/09 03:05:09;;;;;;;2.13;1.58;;;18.00;73.80;;;;;;5115255;28;20012;-79
2021/09/09 03:07:35;;;;;;;2.17;1.50;;;17.90;73.80;;;;;;5115532;28;20024;-76
2021/09/09 03:10:01;;;;;;;2.25;1.33;;;17.90;73.90;;;;;;5115520;28;20421;-77
2021/09/09 03:12:26;;;;;;;1.95;1.25;;;17.90;73.90;;;;;;5115587;28;20034;-77
2021/09/09 03:14:52;;;;;;;2.92;1.30;;;17.90;73.90;;;;;;5115563;28;20064;-77
2021/09/09 03:17:17;;;;;;;3.05;1.80;;;17.90;73.90;;;;;;5114173;28;20157;-78
2021/09/09 03:19:43;;;;;;;2.13;1.60;;;17.90;74.00;;;;;;5114843;28;20089;-77
2021/09/09 03:22:08;;;;;;;1.98;1.60;;;17.80;74.00;;;;;;5115313;28;20148;-77
2021/09/09 03:24:34;;;;;;;2.22;1.65;;;17.80;74.10;;;;;;5115303;28;20099;-77
2021/09/09 03:26:59;;;;;;;1.95;1.60;;;17.80;74.10;;;;;;5115322;28;20019;-77
2021/09/09 03:29:25;;;;;;;1.48;1.35;;;17.80;74.20;;;;;;5115257;28;20023;-77
2021/09/09 03:31:51;;;;;;;2.63;1.73;;;17.70;74.10;;;;;;5115008;28;20052;-77
2021/09/09 03:34:16;;;;;;;2.13;1.48;;;17.70;74.20;;;;;;5114455;28;20492;-77
2021/09/09 03:36:42;;;;;;;2.70;1.88;;;17.70;74.20;;;;;;5114960;28;20611;-78
2021/09/09 03:39:07;;;;;;;3.17;1.67;;;17.70;74.30;;;;;;5115003;28;20492;-77
2021/09/09 03:41:33;;;;;;;2.50;1.60;;;17.70;74.30;;;;;;5114968;28;20095;-77
2021/09/09 03:43:59;;;;;;;2.10;1.33;;;17.60;74.30;;;;;;5114900;28;20559;-77
2021/09/09 03:46:24;;;;;;;1.60;1.50;;;17.60;74.40;;;;;;5096521;28;20392;-77
2021/09/09 03:48:50;;;;;;;1.58;1.38;;;17.60;74.40;;;;;;5114468;28;20103;-77
2021/09/09 03:51:15;;;;;;;2.42;1.75;;;17.60;74.50;;;;;;5096517;28;20019;-77
2021/09/09 03:53:41;;;;;;;2.97;2.20;;;17.50;74.50;;;;;;5114761;28;20034;-78
2021/09/09 03:56:06;;;;;;;1.65;1.30;;;17.50;74.50;;;;;;5114557;28;20035;-78
2021/09/09 03:58:32;;;;;;;2.03;1.67;;;17.50;74.60;;;;;;5114424;28;20027;-77
2021/09/09 04:00:57;;;;;;;1.80;1.45;;;17.50;74.60;;;;;;5114684;28;20016;-77
2021/09/09 04:03:23;;;;;;;1.85;1.42;;;17.50;74.60;;;;;;5113971;28;20153;-77
2021/09/09 04:05:48;;;;;;;1.85;1.50;;;17.50;74.70;;;;;;5114335;28;20468;-77
2021/09/09 04:08:14;;;;;;;1.58;1.48;;;17.40;74.60;;;;;;5096314;28;20077;-78
2021/09/09 04:10:40;;;;;;;2.25;2.00;;;17.40;74.70;;;;;;5114380;28;20020;-78
2021/09/09 04:13:05;;;;;;;1.98;1.58;;;17.40;74.80;;;;;;5114419;28;20024;-78
2021/09/09 04:15:32;;;;;;;1.67;1.45;;;17.40;74.80;;;;;;5095959;28;20420;-78
2021/09/09 04:17:57;;;;;;;2.05;1.60;;;17.40;74.80;;;;;;5113693;28;20033;-77
2021/09/09 04:20:23;;;;;;;2.05;1.45;;;17.40;74.90;;;;;;5114397;28;20024;-78
2021/09/09 04:22:48;;;;;;;2.00;1.50;;;17.40;74.80;;;;;;5114158;28;20376;-78
2021/09/09 04:25:14;;;;;;;1.35;1.25;;;17.40;74.90;;;;;;5114089;28;20023;-78
2021/09/09 04:27:39;;;;;;;1.50;1.40;;;17.40;74.80;;;;;;5114091;28;20027;-78
2021/09/09 04:30:06;;;;;;;1.83;1.60;;;17.40;74.90;;;;;;5113957;28;20099;-78
2021/09/09 04:32:31;;;;;;;1.85;1.65;;;17.40;75.00;;;;;;5113349;28;20035;-78
2021/09/09 04:34:57;;;;;;;2.17;1.60;;;17.30;75.00;;;;;;5113691;28;20040;-78
2021/09/09 04:37:23;;;;;;;2.85;1.73;;;17.30;75.00;;;;;;5113875;28;20028;-78
2021/09/09 04:39:48;;;;;;;2.55;1.92;;;17.30;75.00;;;;;;5113908;28;20015;-78
2021/09/09 04:42:14;;;;;;;2.55;1.80;;;17.30;75.00;;;;;;5113948;28;20400;-78
2021/09/09 04:44:39;;;;;;;2.00;1.70;;;17.30;75.00;;;;;;5113786;28;20022;-78
2021/09/09 04:47:05;;;;;;;2.25;1.60;;;17.30;75.00;;;;;;5113385;28;20027;-79
2021/09/09 04:49:30;;;;;;;1.73;1.20;;;17.40;75.00;;;;;;5113776;28;20015;-79
2021/09/09 04:51:56;;;;;;;1.92;1.48;;;17.30;75.00;;;;;;5113910;28;20038;-78
2021/09/09 04:54:21;;;;;;;1.65;1.30;;;17.40;75.10;;;;;;5113733;28;20026;-77
2021/09/09 04:56:48;;;;;;;2.03;1.58;;;17.30;75.00;;;;;;5113693;28;20019;-78
2021/09/09 04:59:13;;;;;;;1.33;1.10;;;17.30;75.00;;;;;;5113857;28;20093;-78
2021/09/09 05:01:39;;;;;;;1.95;1.63;;;17.30;75.10;;;;;;5113239;28;20475;-77
2021/09/09 05:04:04;;;;;;;1.92;1.35;;;17.30;75.10;;;;;;5113565;28;20019;-76
2021/09/09 05:06:30;;;;;;;2.20;1.48;;;17.30;75.20;;;;;;5113593;28;20027;-78
2021/09/09 05:08:56;;;;;;;1.88;1.48;;;17.30;75.20;;;;;;5113605;28;20071;-79
2021/09/09 05:11:21;;;;;;;2.20;1.92;;;17.30;75.20;;;;;;5113662;28;20491;-80
2021/09/09 05:13:47;;;;;;;2.67;1.75;;;17.20;75.30;;;;;;5113628;28;20067;-78
2021/09/09 05:16:12;;;;;;;1.73;1.38;;;17.20;75.40;;;;;;5113033;28;20020;-77
2021/09/09 05:18:38;;;;;;;1.75;1.55;;;17.20;75.40;;;;;;5113507;28;20054;-77
2021/09/09 05:21:04;;;;;;;2.42;1.60;;;17.20;75.30;;;;;;5095245;28;20024;-78
2021/09/09 05:23:29;;;;;;;1.33;1.23;;;17.20;75.30;;;;;;5113402;28;20387;-77
2021/09/09 05:25:55;;;;;;;1.83;1.67;;;17.20;75.30;;;;;;5095165;28;20392;-79
2021/09/09 05:28:20;;;;;;;3.20;2.17;;;17.20;75.30;;;;;;5113508;28;20051;-77
2021/09/09 05:30:46;;;;;;;2.63;1.83;;;17.30;75.40;;;;;;5112921;28;20103;-78
2021/09/09 05:33:12;;;;;;;1.90;1.60;;;17.20;75.30;;;;;;5113277;28;20051;-79
2021/09/09 05:35:40;;;;;;;1.70;1.35;;;17.30;75.40;;;;;;5113641;28;20039;-78
2021/09/09 05:38:06;;;;;;;3.53;1.95;;;17.20;75.40;;;;;;5113290;28;20081;-78
2021/09/09 05:40:31;;;;;;;2.53;1.67;;;17.30;75.40;;;;;;5114481;28;20016;-79
2021/09/09 05:42:57;;;;;;;2.63;1.90;;;17.30;75.40;;;;;;5117241;28;20033;-80
2021/09/09 05:45:23;;;;;;;2.17;1.55;;;17.30;75.40;;;;;;5116671;28;20103;-80
2021/09/09 05:47:48;;;;;;;1.88;1.50;;;17.30;75.50;;;;;;5117085;28;20055;-81
2021/09/09 05:50:14;;;;;;;2.17;1.77;;;17.20;75.50;;;;;;5117288;28;20024;-79
2021/09/09 05:52:39;;;;;;;2.17;1.70;;;17.30;75.60;;;;;;5117134;28;20035;-77
2021/09/09 05:55:05;;;;;;;1.77;1.58;;;17.30;75.50;;;;;;5098559;28;20135;-81
2021/09/09 05:57:30;;;;;;;2.67;1.73;;;17.30;75.50;;;;;;5117010;28;20392;-81
2021/09/09 05:59:56;;;;;;;1.80;1.58;;;17.30;75.40;;;;;;5116485;28;20030;-77
2021/09/09 06:02:26;;;;;;;1.88;1.58;;;17.40;75.40;;;;;;5116943;28;20096;-80
2021/09/09 06:04:52;;;;;;;2.45;1.75;;;17.40;75.40;;;;;;5116837;28;20024;-80
2021/09/09 06:07:17;;;;;;;2.70;1.60;;;17.40;75.30;;;;;;5116925;28;20031;-80
2021/09/09 06:09:43;;;;;;;2.15;1.60;;;17.50;75.40;;;;;;5098621;28;20074;-79
2021/09/09 06:12:09;;;;;;;2.28;1.60;;;17.50;75.30;;;;;;5116709;28;20028;-79
2021/09/09 06:14:35;;;;;;;1.77;1.45;;;17.50;75.20;;;;;;5098030;28;20076;-80
2021/09/09 06:17:01;;;;;;;2.13;1.70;;;17.60;75.30;;;;;;5116565;28;20019;-78
2021/09/09 06:19:26;;;;;;;3.05;1.85;;;17.60;75.30;;;;;;5132577;27;20023;-78
2021/09/09 06:21:52;;;;;;;1.52;1.42;;;17.60;75.30;;;;;;5116693;28;20024;-79
2021/09/09 06:24:18;;;;;;;2.10;1.55;;;17.60;75.40;;;;;;5116449;28;20433;-80
2021/09/09 06:26:43;;;;;;;2.03;1.65;;;17.60;75.40;;;;;;5116374;28;20020;-78
2021/09/09 06:29:09;;;;;;;1.77;1.60;;;17.70;75.30;;;;;;5097656;28;20030;-77
2021/09/09 06:31:35;;;;;;;2.10;1.88;;;17.70;75.30;;;;;;5116158;28;20460;-78
2021/09/09 06:34:00;;;;;;;2.13;1.52;;;17.80;75.20;;;;;;5116053;28;20048;-77
2021/09/09 06:36:26;;;;;;;2.20;1.63;;;17.90;75.20;;;;;;5132054;27;20039;-78
2021/09/09 06:38:51;;;;;;;2.65;1.83;;;17.90;75.20;;;;;;5116317;28;20032;-78
2021/09/09 06:41:17;;;;;;;2.80;1.90;;;17.90;75.30;;;;;;5131693;27;20031;-77
2021/09/09 06:43:43;;;;;;;2.97;2.05;;;17.90;75.20;;;;;;5115634;28;20024;-77
2021/09/09 06:46:08;;;;;;;1.83;1.70;;;18.00;75.30;;;;;;5115984;28;20030;-77
2021/09/09 06:48:34;;;;;;;3.05;1.98;;;18.00;75.30;;;;;;5097637;28;20106;-77
2021/09/09 06:51:01;;;;;;;2.50;2.03;;;18.00;75.30;;;;;;5131710;27;20110;-77
2021/09/09 06:53:27;;;;;;;3.05;2.17;;;18.10;75.30;;;;;;5097478;28;20023;-77
2021/09/09 06:55:53;;;;;;;2.20;1.55;;;18.20;75.30;;;;;;5115870;28;20016;-78
2021/09/09 06:58:18;;;;;;;2.03;1.70;;;18.20;75.90;;;;;;5096910;28;20027;-76
2021/09/09 07:00:44;;;;;;;2.97;1.98;;;18.20;75.20;;;;;;5115768;28;20592;-77
2021/09/09 07:03:09;;;;;;;2.55;1.80;;;18.30;75.20;;;;;;5131451;27;20027;-77
2021/09/09 07:05:35;;;;;;;2.38;1.98;;;18.40;75.20;;;;;;5115683;28;20477;-76
2021/09/09 07:08:01;;;;;;;2.47;1.98;;;18.40;75.20;;;;;;5115514;28;20031;-76
2021/09/09 07:10:27;;;;;;;2.80;2.15;;;18.50;75.20;;;;;;5115534;28;20048;-76
2021/09/09 07:12:52;;;;;;;2.58;1.90;;;18.50;75.10;;;;;;5115152;28;20066;-76
2021/09/09 07:15:18;;;;;;;2.80;2.00;;;18.60;75.10;;;;;;5115337;28;20024;-76
2021/09/09 07:17:43;;;;;;;2.95;1.92;;;18.70;75.10;;;;;;5097178;28;20176;-78
2021/09/09 07:20:09;;;;;;;2.95;1.70;;;18.70;75.00;;;;;;5115553;28;20023;-79
2021/09/09 07:22:35;;;;;;;3.17;2.28;;;18.80;74.90;;;;;;5115141;28;20042;-77
2021/09/09 07:25:01;;;;;;;3.15;2.45;;;18.90;74.80;;;;;;5115333;28;20023;-78
2021/09/09 07:27:26;;;;;;;2.30;1.80;;;19.00;74.80;;;;;;5096480;28;20468;-77
2021/09/09 07:29:52;;;;;;;1.92;1.70;;;19.00;74.70;;;;;;5115062;28;20064;-78
2021/09/09 07:32:17;;;;;;;2.33;1.80;;;19.10;74.70;;;;;;5115190;28;20016;-77
2021/09/09 07:34:43;;;;;;;2.05;1.65;;;19.20;74.70;;;;;;5096567;28;20168;-77
2021/09/09 07:37:08;;;;;;;2.28;1.90;;;19.20;74.60;;;;;;5096708;28;20034;-77
2021/09/09 07:39:34;;;;;;;2.78;1.95;;;19.30;74.60;;;;;;5114874;28;20051;-77
2021/09/09 07:42:00;;;;;;;2.45;1.80;;;19.30;74.60;;;;;;5114429;28;20529;-77
2021/09/09 07:44:25;;;;;;;2.50;2.05;;;19.40;74.60;;;;;;5096500;28;20038;-78
2021/09/09 07:46:51;;;;;;;1.90;1.70;;;19.50;74.60;;;;;;5114941;28;20016;-78
2021/09/09 07:49:16;;;;;;;2.15;1.60;;;19.60;74.50;;;;;;5114804;28;20539;-76
2021/09/09 07:51:43;;;;;;;1.92;1.80;;;19.60;74.40;;;;;;5114589;28;20020;-76
2021/09/09 07:54:09;;;;;;;2.75;1.83;;;19.70;74.50;;;;;;5115167;28;20022;-77
2021/09/09 07:56:34;;;;;;;2.78;1.73;;;19.70;74.40;;;;;;5114103;28;20023;-77
2021/09/09 07:59:00;;;;;;;2.33;1.83;;;19.80;74.30;;;;;;5113828;28;20027;-77
2021/09/09 08:01:26;;;;;;;2.20;2.00;;;19.90;74.30;;;;;;5130196;27;20055;-76
2021/09/09 08:03:51;;;;;;;2.03;1.83;;;20.00;74.40;;;;;;5095858;28;20387;-78
2021/09/09 08:06:17;;;;;;;2.50;2.15;;;20.00;74.60;;;;;;5114490;28;20019;-77
2021/09/09 08:08:43;;;;;;;2.20;1.70;;;20.10;74.20;;;;;;5114491;28;20104;-78
2021/09/09 08:11:09;;;;;;;2.83;2.05;;;20.30;74.10;;;;;;5113793;28;20031;-76
2021/09/09 08:13:35;;;;;;;3.17;2.20;;;20.30;73.90;;;;;;5130241;27;20024;-81
2021/09/09 08:16:01;;;;;;;3.28;1.85;;;20.40;73.90;;;;;;5114274;28;20019;-79
2021/09/09 08:18:27;;;;;;;2.47;1.80;;;20.50;73.80;;;;;;5114249;28;20122;-78
2021/09/09 08:20:54;;;;;;;2.20;1.90;;;20.60;73.80;;;;;;5114269;28;20055;-79
2021/09/09 08:23:21;;;;;;;3.30;2.03;;;20.60;73.90;;;;;;5114111;28;20031;-78
2021/09/09 08:25:46;;;;;;;2.10;1.70;;;20.70;74.60;;;;;;5095334;28;20106;-79
2021/09/09 08:28:12;;;;;;;1.40;1.30;;;20.70;74.10;;;;;;5114045;28;20070;-79
2021/09/09 08:30:38;;;;;;;2.53;1.85;;;20.70;74.10;;;;;;5113982;28;20049;-79
2021/09/09 08:33:03;;;;;;;4.88;2.13;;;20.80;74.10;;;;;;5113858;28;20095;-79
2021/09/09 08:35:29;;;;;;;2.92;1.60;;;20.80;74.10;;;;;;5113981;28;20039;-78
2021/09/09 08:37:54;;;;;;;1.60;1.30;;;20.90;74.00;;;;;;5113886;28;20110;-79
2021/09/09 08:40:21;;;;;;;1.35;1.25;;;21.00;73.90;;;;;;5113677;28;20015;-79
2021/09/09 08:42:48;;;;;;;3.28;1.73;;;21.00;73.80;;;;;;5113798;28;20510;-78
2021/09/09 08:45:14;;;;;;;2.33;2.08;;;21.10;73.80;;;;;;5113963;28;20032;-79
2021/09/09 08:47:41;;;;;;;1.45;1.20;;;21.20;73.80;;;;;;5095580;28;20020;-79
2021/09/09 08:50:08;;;;;;;2.85;1.90;;;21.30;73.70;;;;;;5113748;28;20068;-79
2021/09/09 08:52:36;;;;;;;2.65;1.88;;;21.40;73.60;;;;;;5113891;28;20027;-79
2021/09/09 08:55:01;;;;;;;2.83;2.00;;;21.40;73.50;;;;;;5113420;28;20051;-79
2021/09/09 08:57:29;;;;;;;2.05;1.80;;;21.50;73.50;;;;;;5095225;28;20112;-79
2021/09/09 08:59:55;;;;;;;2.20;1.80;;;21.60;73.50;;;;;;5112929;28;20130;-78
2021/09/09 09:02:21;;;;;;;2.65;1.60;;;21.70;74.00;;;;;;5113363;28;20055;-78
2021/09/09 09:05:06;;;;;;;2.40;1.80;;;21.70;73.30;;;;;;5113621;28;20028;-77
2021/09/09 09:07:33;;;;;;;1.55;1.23;;;21.80;73.20;;;;;;5095292;28;20050;-80
2021/09/09 09:10:03;;;;;;;1.42;1.33;;;21.90;73.10;;;;;;5095369;28;20089;-78
2021/09/09 09:12:42;;;;;;;2.00;1.58;;;22.10;73.60;;;;;;5113822;28;20464;-78
2021/09/09 09:15:17;;;;;;;;;;;22.10;72.80;;;;;;5114348;28;20020;-78
2021/09/09 09:17:58;;;;;;;1.60;1.42;;;22.20;72.80;;;;;;5117603;28;19935;-78
2021/09/09 09:20:36;;;;;;;2.33;1.40;;;22.40;72.50;;;;;;5099515;28;20041;-78
2021/09/09 09:23:10;;;;;;;1.15;1.05;;;22.60;72.30;;;;;;5117146;28;20023;-79
2021/09/09 09:25:50;;;;;;;2.53;1.88;;;22.80;72.30;;;;;;5117601;28;20024;-78
2021/09/09 09:28:36;;;;;;;1.75;1.40;;;22.90;72.00;;;;;;5099382;28;20124;-79
2021/09/09 09:31:04;;;;;;;1.90;1.70;;;22.90;71.90;;;;;;5117683;28;20107;-79
2021/09/09 09:33:36;;;;;;;3.03;1.98;;;23.00;71.90;;;;;;5116953;28;20051;-78
2021/09/09 09:36:19;;;;;;;1.73;1.63;;;23.10;72.00;;;;;;5115996;28;20020;-78
2021/09/09 09:38:45;;;;;;;2.25;1.88;;;23.30;71.90;;;;;;5097171;28;20034;-78
2021/09/09 09:41:12;;;;;;;1.50;1.40;;;23.40;71.80;;;;;;5115921;28;20066;-78
2021/09/09 09:43:47;;;;;;;1.77;1.58;;;23.50;71.70;;;;;;5115866;28;20036;-78
2021/09/09 09:46:29;;;;;;;2.53;1.90;;;23.70;71.40;;;;;;5115933;28;20020;-78
2021/09/09 09:48:55;;;;;;;2.17;1.73;;;23.90;71.20;;;;;;5115859;28;20034;-79
2021/09/09 09:51:42;;;;;;;1.65;1.30;;;24.00;71.20;;;;;;5115376;28;20022;-80
2021/09/09 09:54:13;;;;;;;2.90;1.63;;;24.20;71.20;;;;;;5115904;28;20491;-78
2021/09/09 09:56:40;;;;;;;1.77;1.60;;;24.20;71.10;;;;;;5115725;28;20059;-77
2021/09/09 09:59:06;;;;;;;2.00;1.63;;;24.30;71.00;;;;;;5115725;28;20039;-80
2021/09/09 10:01:32;;;;;;;1.77;1.60;;;24.40;70.90;;;;;;5115802;28;20051;-81
2021/09/09 10:04:02;;;;;;;1.50;1.40;;;24.50;70.80;;;;;;5115616;28;20034;-79
2021/09/09 10:06:30;;;;;;;2.25;1.65;;;24.60;71.30;;;;;;5115040;28;20384;-80
2021/09/09 10:08:56;;;;;;;1.63;1.30;;;24.70;70.50;;;;;;5115330;28;20521;-78
2021/09/09 10:11:22;;;;;;;2.03;1.45;;;24.90;70.40;;;;;;5115279;28;20483;-80
2021/09/09 10:13:48;;;;;;;1.98;1.63;;;24.90;70.30;;;;;;5115429;28;20024;-79
2021/09/09 10:16:16;;;;;;;1.45;1.35;;;25.00;70.30;;;;;;5115345;28;20023;-78
2021/09/09 10:18:42;;;;;;;1.30;1.20;;;25.00;70.30;;;;;;5115017;28;20036;-78
2021/09/09 10:21:08;;;;;;;1.40;1.20;;;25.00;70.20;;;;;;5114651;28;20015;-78
2021/09/09 10:23:34;;;;;;;2.13;1.70;;;25.10;70.30;;;;;;5096691;28;20472;-79
2021/09/09 10:26:01;;;;;;;1.75;1.50;;;25.10;70.30;;;;;;5096230;28;20108;-80
2021/09/09 10:28:33;;;;;;;1.95;1.75;;;25.10;70.40;;;;;;5115130;28;20028;-78
2021/09/09 10:31:03;;;;;;;1.85;1.60;;;25.00;70.40;;;;;;5096776;28;20102;-79
2021/09/09 10:33:29;;;;;;;2.60;1.90;;;25.00;70.50;;;;;;5061362;28;1020467;-78
2021/09/09 10:35:55;;;;;;;2.60;2.10;;;25.00;70.60;;;;;;5115563;28;20032;-74
2021/09/09 10:38:21;;;;;;;3.17;2.08;;;25.10;70.60;;;;;;5116160;28;20037;-76
2021/09/09 10:40:47;;;;;;;2.15;1.70;;;25.10;70.60;;;;;;5116053;28;20375;-76
2021/09/09 10:43:40;;;;;;;2.88;1.73;;;25.10;70.50;;;;;;5115924;28;20041;-79
2021/09/09 10:46:10;;;;;;;2.65;1.85;;;25.30;70.40;;;;;;5111728;28;20031;-81
2021/09/09 10:48:38;;;;;;;2.00;1.70;;;25.50;70.20;;;;;;5115586;28;20035;-79
2021/09/09 10:51:14;;;;;;;2.95;2.67;;;25.60;70.60;;;;;;5115272;28;20020;-78
2021/09/09 10:53:42;;;;;;;1.92;1.70;;;25.70;69.90;;;;;;5097414;28;20062;-79
2021/09/09 10:56:16;;;;;;;1.98;1.75;;;25.80;69.90;;;;;;5115503;28;20530;-78
2021/09/09 10:58:43;;;;;;;2.17;1.88;;;25.80;69.90;;;;;;5115556;28;20107;-75
2021/09/09 11:01:10;;;;;;;2.35;1.90;;;25.80;70.10;;;;;;5115541;28;20019;-77
2021/09/09 11:03:38;;;;;;;2.92;2.33;;;25.80;70.00;;;;;;5115021;28;20100;-78
2021/09/09 11:06:06;;;;;;;2.00;1.80;;;25.80;70.10;;;;;;5115340;28;20016;-78
2021/09/09 11:08:32;;;;;;;2.80;2.05;;;25.80;70.10;;;;;;5115498;28;20035;-80
2021/09/09 11:10:58;;;;;;;2.35;1.80;;;25.80;70.10;;;;;;5115376;28;20045;-79
2021/09/09 11:13:28;;;;;;;2.10;1.90;;;25.80;70.10;;;;;;5097272;28;20028;-78
2021/09/09 11:15:54;;;;;;;2.35;2.03;;;25.80;69.90;;;;;;5115355;28;20036;-78
2021/09/09 11:18:29;;;;;;;1.90;1.80;;;25.90;70.00;;;;;;5114571;28;20070;-78
2021/09/09 11:21:07;;;;;;;2.53;2.17;;;25.90;70.60;;;;;;5115257;28;20069;-76
2021/09/09 11:23:34;;;;;;;2.13;1.63;;;26.00;69.90;;;;;;5096947;28;20019;-81
2021/09/09 11:26:14;;;;;;;1.88;1.40;;;25.90;69.90;;;;;;5096694;28;20276;-80
2021/09/09 11:28:41;;;;;;;2.10;1.88;;;26.00;69.90;;;;;;5115070;28;20083;-80
2021/09/09 11:31:11;;;;;;;2.10;1.65;;;26.10;70.00;;;;;;5096826;28;20480;-80
2021/09/09 11:33:57;;;;;;;1.30;1.20;;;26.20;69.80;;;;;;5095825;28;20369;-81
2021/09/09 11:36:32;;;;;;;1.88;1.50;;;26.30;69.70;;;;;;5115018;28;20031;-80
2021/09/09 11:39:00;;;;;;;1.83;1.63;;;26.40;69.50;;;;;;5095905;28;20023;-80
2021/09/09 11:41:32;;;;;;;2.05;1.60;;;26.50;69.40;;;;;;5096471;28;20016;-79
2021/09/09 11:44:00;;;;;;;2.33;1.77;;;26.60;69.30;;;;;;5114803;28;20445;-79
2021/09/09 11:46:32;;;;;;;1.83;1.60;;;26.80;69.30;;;;;;5115108;28;20028;-79
2021/09/09 11:49:01;;;;;;;2.65;2.20;;;26.80;69.80;;;;;;5114218;28;20108;-78
2021/09/09 11:51:34;;;;;;;2.15;1.95;;;26.90;69.20;;;;;;5114749;28;20054;-79
2021/09/09 11:54:00;;;;;;;2.17;1.85;;;26.90;69.10;;;;;;5114798;28;20019;-79
2021/09/09 11:56:26;;;;;;;2.92;2.63;;;26.90;69.10;;;;;;5114364;28;20102;-79
2021/09/09 11:58:52;;;;;;;2.97;2.30;;;26.90;69.10;;;;;;5114513;28;20115;-78
2021/09/09 12:01:18;;;;;;;3.13;2.72;;;26.90;69.10;;;;;;5114543;28;20047;-79
2021/09/09 12:03:45;;;;;;;3.13;2.53;;;26.90;69.20;;;;;;5095666;28;20016;-79
2021/09/09 12:06:12;;;;;;;2.53;2.08;;;26.90;69.10;;;;;;5114508;28;20384;-78
2021/09/09 12:08:39;;;;;;;3.70;2.72;;;27.00;69.10;;;;;;5114576;28;20027;-78
2021/09/09 12:11:10;;;;;;;3.38;2.75;;;27.00;68.90;;;;;;5114331;28;20012;-78
2021/09/09 12:13:36;;;;;;;2.97;2.13;;;27.10;69.00;;;;;;5114212;28;20027;-78
2021/09/09 12:16:17;;;;;;;2.53;2.30;;;27.00;69.00;;;;;;5113934;28;20020;-78
2021/09/09 12:18:44;;;;;;;3.30;2.70;;;27.10;68.90;;;;;;5114136;28;20039;-78
2021/09/09 12:21:19;;;;;;;2.88;2.25;;;27.30;68.70;;;;;;5114385;28;20020;-79
2021/09/09 12:23:59;;;;;;;3.58;2.97;;;27.60;68.40;;;;;;5114113;28;20483;-78
2021/09/09 12:26:25;;;;;;;3.67;3.28;;;27.90;67.90;;;;;;5113976;28;20043;-79
2021/09/09 12:28:51;;;;;;;2.97;2.42;;;28.20;67.40;;;;;;5114112;28;20105;-78
2021/09/09 12:31:33;;;;;;;3.95;2.50;;;28.40;67.10;;;;;;5113699;28;20019;-77
2021/09/09 12:33:58;;;;;;;3.17;2.60;;;28.60;67.00;;;;;;5113880;28;20039;-79
2021/09/09 12:36:24;;;;;;;2.83;2.38;;;28.60;66.90;;;;;;5113985;28;20436;-78
2021/09/09 12:38:49;;;;;;;3.10;2.50;;;28.60;67.00;;;;;;5114061;28;20559;-79
2021/09/09 12:41:18;;;;;;;3.65;2.67;;;28.70;67.10;;;;;;5113950;28;20023;-80
2021/09/09 12:43:51;;;;;;;2.40;2.20;;;28.70;67.10;;;;;;5095659;28;20464;-78
2021/09/09 12:46:37;;;;;;;3.35;2.45;;;28.80;67.30;;;;;;5113671;28;20024;-79